Time;durP1;ratioP1;P1;durP2;ratioP2;P2;SDS_P1;SDS_P2;PMS_P1;PMS_P2;Temp;Humidity;BMP_temperature;BMP_pressure;BME280_temperature;BME280_humidity;BME280_pressure;Samples;Min_cycle;Max_cycle;Signal;HPM_P1;HPM_P2
2022/07/24 00:01:48;;;;;;;3.70;3.40;;;;;;;21.68;49.21;99204.63;5091077;28;42705;-80
2022/07/24 00:04:16;;;;;;;4.00;3.70;;;;;;;21.66;49.39;99195.84;5107520;28;41112;-78
2022/07/24 00:06:43;;;;;;;3.57;3.27;;;;;;;21.63;49.48;99201.56;5125294;27;40962;-78
2022/07/24 00:09:13;;;;;;;3.80;3.50;;;;;;;21.62;49.35;99204.41;5090682;28;40995;-79
2022/07/24 00:11:40;;;;;;;3.70;3.33;;;;;;;21.59;49.55;99205.56;5107790;28;41701;-78
2022/07/24 00:14:08;;;;;;;3.93;3.53;;;;;;;21.56;49.63;99200.50;5091891;28;43305;-78
2022/07/24 00:16:36;;;;;;;5.07;3.53;;;;;;;21.55;49.91;99204.19;5107891;28;38948;-79
2022/07/24 00:19:04;;;;;;;3.70;3.40;;;;;;;21.52;49.85;99204.50;5090380;28;40515;-80
2022/07/24 00:21:32;;;;;;;3.60;3.30;;;;;;;21.51;49.46;99211.72;5090633;28;42765;-79
2022/07/24 00:23:59;;;;;;;3.07;2.87;;;;;;;21.49;49.55;99210.22;5090184;28;43453;-79
2022/07/24 00:26:29;;;;;;;2.80;2.60;;;;;;;21.44;49.09;99207.97;5107637;28;39342;-78
2022/07/24 00:28:57;;;;;;;3.67;3.37;;;;;;;21.42;49.19;99211.81;5090580;28;41117;-79
2022/07/24 00:31:25;;;;;;;3.00;2.70;;;;;;;21.34;49.36;99201.00;5091853;28;43574;-79
2022/07/24 00:33:53;;;;;;;3.40;3.10;;;;;;;21.33;49.63;99204.69;5107197;28;41338;-78
2022/07/24 00:36:21;;;;;;;3.30;3.00;;;;;;;21.30;49.51;99205.00;5073690;28;40259;-78
2022/07/24 00:38:48;;;;;;;4.07;2.70;;;;;;;21.25;49.21;99204.63;5107176;28;42186;-79
2022/07/24 00:41:16;;;;;;;3.40;3.10;;;;;;;21.20;49.48;99199.69;5091676;28;43730;-79
2022/07/24 00:44:06;;;;;;;3.50;3.20;;;;;;;21.17;49.54;99205.34;5090124;28;43121;-79
2022/07/24 00:46:35;;;;;;;3.40;3.10;;;;;;;21.13;49.61;99202.13;5090795;28;39904;-78
2022/07/24 00:49:05;;;;;;;3.80;3.50;;;;;;;21.03;49.54;99187.88;5090308;28;40798;-78
2022/07/24 00:51:34;;;;;;;3.67;3.17;;;;;;;21.06;49.65;99198.34;5073492;28;42802;-78
2022/07/24 00:54:04;;;;;;;4.03;3.03;;;;;;;21.04;49.83;99207.56;5089848;28;43562;-79
2022/07/24 00:56:31;;;;;;;3.10;2.90;;;;;;;21.01;50.01;99199.81;5090734;28;38951;-78
2022/07/24 00:59:02;;;;;;;3.17;2.97;;;;;;;20.97;50.26;99199.28;5090167;28;42177;-79
2022/07/24 01:01:31;;;;;;;3.60;3.30;;;;;;;20.96;50.67;99202.97;5073422;28;42780;-80
2022/07/24 01:03:59;;;;;;;3.30;3.00;;;;;;;20.90;50.83;99191.94;5089745;28;41196;-80
2022/07/24 01:06:27;;;;;;;3.67;3.33;;;;;;;20.92;50.28;99204.25;5090202;28;40824;-78
2022/07/24 01:08:56;;;;;;;3.23;2.97;;;;;;;20.89;50.85;99207.28;5106459;28;41708;-79
2022/07/24 01:11:24;;;;;;;4.83;3.63;;;;;;;20.87;50.90;99209.28;5090377;28;43745;-79
2022/07/24 01:13:52;;;;;;;4.70;3.37;;;;;;;20.85;50.71;99200.50;5091166;28;43354;-77
2022/07/24 01:16:21;;;;;;;3.40;3.10;;;;;;;20.82;51.67;99195.41;5092230;28;40697;-79
2022/07/24 01:18:49;;;;;;;6.17;3.73;;;;;;;20.82;50.90;99205.34;5110077;28;40678;-79
2022/07/24 01:21:18;;;;;;;3.37;3.07;;;;;;;20.79;51.25;99201.94;5093549;28;41928;-78
2022/07/24 01:23:46;;;;;;;3.97;3.47;;;;;;;20.81;51.23;99199.09;5127719;27;42027;-79
2022/07/24 01:26:14;;;;;;;3.27;2.97;;;;;;;20.82;51.21;99195.41;5110839;28;39843;-78
2022/07/24 01:28:41;;;;;;;3.30;3.10;;;;;;;20.88;51.10;99202.06;5094666;28;42002;-78
2022/07/24 01:31:09;;;;;;;3.93;3.20;;;;;;;20.92;50.63;99200.72;5093491;28;41761;-80
2022/07/24 01:33:37;;;;;;;3.23;2.93;;;;;;;20.91;50.49;99194.50;5094415;28;42181;-79
2022/07/24 01:36:06;;;;;;;3.40;3.10;;;;;;;21.06;50.25;99208.28;5076564;28;41612;-78
2022/07/24 01:38:35;;;;;;;3.67;3.00;;;;;;;21.12;50.30;99207.66;5093280;28;42223;-80
2022/07/24 01:41:03;;;;;;;3.30;3.00;;;;;;;21.15;50.06;99216.28;5093141;28;42755;-80
2022/07/24 01:43:31;;;;;;;3.00;2.80;;;;;;;21.07;50.23;99197.34;5110127;28;40903;-81
2022/07/24 01:45:59;;;;;;;3.10;2.80;;;;;;;21.19;50.20;99218.69;5094510;28;39933;-79
2022/07/24 01:48:26;;;;;;;3.07;2.87;;;;;;;21.19;49.91;99218.69;5109887;28;40417;-80
2022/07/24 01:50:54;;;;;;;3.47;3.17;;;;;;;21.18;50.01;99217.81;5093133;28;43392;-79
2022/07/24 01:53:22;;;;;;;3.30;3.00;;;;;;;21.17;50.09;99221.50;5076010;28;42703;-78
2022/07/24 01:55:52;;;;;;;2.77;2.57;;;;;;;21.16;49.91;99209.88;5093128;28;39885;-79
2022/07/24 01:58:20;;;;;;;3.57;3.27;;;;;;;21.13;50.14;99212.91;5075805;28;41737;-79
2022/07/24 02:00:48;;;;;;;3.97;3.37;;;;;;;21.10;50.72;99207.81;5094212;28;43750;-79
2022/07/24 02:03:16;;;;;;;3.70;3.40;;;;;;;21.08;50.27;99209.81;5093881;28;42137;-80
2022/07/24 02:05:44;;;;;;;3.03;2.83;;;;;;;21.07;50.26;99216.19;5094140;28;40413;-78
2022/07/24 02:08:11;;;;;;;3.10;2.90;;;;;;;21.05;50.23;99212.81;5075453;28;41787;-79
2022/07/24 02:10:39;;;;;;;3.13;2.83;;;;;;;20.99;50.43;99210.75;5091030;28;43783;-79
2022/07/24 02:13:09;;;;;;;3.50;3.20;;;;;;;20.98;50.33;99214.44;5092634;28;41154;-80
2022/07/24 02:15:37;;;;;;;2.73;2.53;;;;;;;20.97;50.15;99214.59;5093033;28;40862;-78
2022/07/24 02:18:04;;;;;;;3.33;2.90;;;;;;;20.92;50.36;99217.72;5092447;28;41695;-80
2022/07/24 02:20:32;;;;;;;3.20;2.80;;;;;;;20.89;50.45;99212.66;5092646;28;43584;-78
2022/07/24 02:23:00;;;;;;;2.90;2.60;;;;;;;20.86;50.74;99206.75;5092779;28;42206;-79
2022/07/24 02:25:28;;;;;;;2.90;2.70;;;;;;;20.84;50.48;99212.28;5092665;28;40007;-78
2022/07/24 02:27:56;;;;;;;3.47;2.97;;;;;;;20.82;50.59;99216.09;5092311;28;43169;-78
2022/07/24 02:30:25;;;;;;;2.73;2.50;;;;;;;20.80;51.02;99213.56;5093833;28;43536;-78
2022/07/24 02:32:53;;;;;;;2.97;2.73;;;;;;;20.68;50.89;99198.63;5126661;27;43198;-80
2022/07/24 02:35:21;;;;;;;2.97;2.73;;;;;;;20.72;50.94;99210.78;5092522;28;40802;-78
2022/07/24 02:37:49;;;;;;;3.10;2.80;;;;;;;20.60;51.08;99190.47;5092573;28;41801;-79
2022/07/24 02:40:17;;;;;;;2.83;2.63;;;;;;;20.64;51.06;99198.09;5092294;28;42607;-79
2022/07/24 02:42:45;;;;;;;2.80;2.60;;;;;;;20.62;50.97;99210.84;5126460;27;42343;-78
2022/07/24 02:45:13;;;;;;;3.30;3.00;;;;;;;20.61;51.58;99205.63;5093456;28;40865;-79
2022/07/24 02:47:50;;;;;;;3.60;3.30;;;;;;;20.60;51.65;99209.31;5092314;28;40400;-79
2022/07/24 02:50:19;;;;;;;3.53;3.23;;;;;;;20.56;51.50;99207.91;5092005;28;42792;-79
2022/07/24 02:52:47;;;;;;;3.43;3.13;;;;;;;20.54;52.05;99212.59;5126432;27;42175;-80
2022/07/24 02:55:15;;;;;;;3.30;3.00;;;;;;;20.49;51.70;99214.91;5092236;28;40060;-78
2022/07/24 02:57:44;;;;;;;3.63;3.33;;;;;;;20.36;51.82;99209.88;5075049;28;43279;-79
2022/07/24 03:00:15;;;;;;;3.37;3.07;;;;;;;20.37;51.70;99211.56;5074895;28;42744;-79
2022/07/24 03:02:43;;;;;;;3.00;2.80;;;;;;;20.31;52.15;99218.34;5091944;28;40841;-79
2022/07/24 03:05:13;;;;;;;3.50;3.20;;;;;;;20.25;52.06;99210.88;5091709;28;41142;-79
2022/07/24 03:07:42;;;;;;;3.20;2.90;;;;;;;20.21;52.14;99212.16;5091641;28;43579;-80
2022/07/24 03:10:12;;;;;;;3.13;2.93;;;;;;;20.16;52.55;99203.69;5125663;27;43546;-78
2022/07/24 03:12:40;;;;;;;3.53;3.17;;;;;;;20.04;52.57;99199.47;5125866;27;44187;-79
2022/07/24 03:15:09;;;;;;;4.30;3.70;;;;;;;20.08;52.83;99206.25;5074907;28;38894;-80
2022/07/24 03:17:37;;;;;;;3.57;3.27;;;;;;;19.98;52.42;99206.31;5108677;28;42042;-79
2022/07/24 03:20:06;;;;;;;3.40;3.10;;;;;;;20.03;52.89;99208.53;5108384;28;43165;-79
2022/07/24 03:22:35;;;;;;;5.50;3.57;;;;;;;19.96;52.97;99200.22;5091850;28;41115;-78
2022/07/24 03:25:03;;;;;;;3.47;3.17;;;;;;;19.86;52.79;99187.81;5091514;28;39365;-79
2022/07/24 03:27:31;;;;;;;4.17;3.03;;;;;;;19.94;52.84;99210.28;5091384;28;41840;-79
2022/07/24 03:29:59;;;;;;;3.17;2.90;;;;;;;19.93;52.45;99215.78;5092446;28;43738;-79
2022/07/24 03:32:27;;;;;;;3.87;2.90;;;;;;;19.93;52.57;99218.47;5091732;28;43180;-79
2022/07/24 03:34:55;;;;;;;3.30;2.73;;;;;;;19.94;52.64;99217.50;5090998;28;38916;-79
2022/07/24 03:37:22;;;;;;;3.40;3.13;;;;;;;19.97;52.32;99214.53;5092634;28;42856;-80
2022/07/24 03:39:51;;;;;;;3.33;3.03;;;;;;;19.99;52.40;99217.91;5090738;28;42701;-79
2022/07/24 03:42:19;;;;;;;3.67;3.27;;;;;;;20.00;52.66;99219.59;5091278;28;44405;-79
2022/07/24 03:44:47;;;;;;;4.83;3.07;;;;;;;19.99;52.82;99224.13;5091012;28;39991;-78
2022/07/24 03:47:15;;;;;;;4.03;3.20;;;;;;;19.98;53.27;99213.53;5092525;28;42466;-79
2022/07/24 03:49:43;;;;;;;3.60;3.30;;;;;;;19.95;53.37;99216.50;5125009;27;42729;-78
2022/07/24 03:52:11;;;;;;;3.50;3.20;;;;;;;19.94;52.99;99220.19;5091128;28;41530;-79
2022/07/24 03:54:39;;;;;;;2.77;2.57;;;;;;;19.91;53.40;99215.09;5090864;28;38863;-79
2022/07/24 03:57:09;;;;;;;3.50;3.20;;;;;;;19.88;54.03;99215.41;5092477;28;41947;-79
2022/07/24 03:59:36;;;;;;;4.10;3.70;;;;;;;19.85;53.60;99216.53;5073791;28;42651;-79
2022/07/24 04:02:04;;;;;;;3.97;3.57;;;;;;;19.76;53.65;99206.66;5125254;27;42302;-78
2022/07/24 04:04:31;;;;;;;3.73;3.43;;;;;;;19.82;54.00;99215.97;5090980;28;39907;-79
2022/07/24 04:06:59;;;;;;;3.57;3.27;;;;;;;19.87;53.93;99228.00;5090764;28;40714;-79
2022/07/24 04:09:27;;;;;;;3.90;3.50;;;;;;;19.92;53.98;99232.91;5091766;28;42719;-76
2022/07/24 04:11:55;;;;;;;3.87;3.57;;;;;;;19.99;54.54;99217.91;5092244;28;42226;-78
2022/07/24 04:14:24;;;;;;;3.27;2.93;;;;;;;20.04;54.33;99227.22;5073872;28;39841;-79
2022/07/24 04:16:52;;;;;;;3.40;3.10;;;;;;;20.10;54.03;99225.78;5090991;28;42754;-80
2022/07/24 04:19:19;;;;;;;3.27;2.97;;;;;;;20.16;53.65;99238.63;5091624;28;43825;-78
2022/07/24 04:21:47;;;;;;;3.30;3.07;;;;;;;20.19;53.82;99235.66;5091978;28;43148;-78
2022/07/24 04:24:15;;;;;;;3.70;3.40;;;;;;;20.32;53.56;99238.03;5124984;27;39864;-78
2022/07/24 04:26:43;;;;;;;4.43;3.60;;;;;;;20.43;53.50;99249.47;5091824;28;42492;-79
2022/07/24 04:29:11;;;;;;;3.80;3.50;;;;;;;20.46;52.98;99223.25;5090520;28;42856;-79
2022/07/24 04:31:41;;;;;;;3.70;3.40;;;;;;;20.66;53.35;99247.22;5090755;28;42052;-78
2022/07/24 04:34:08;;;;;;;3.27;3.07;;;;;;;20.73;53.04;99247.47;5107513;28;39988;-78
2022/07/24 04:36:36;;;;;;;3.93;3.27;;;;;;;20.78;53.14;99242.47;5091949;28;42697;-79
2022/07/24 04:39:04;;;;;;;3.80;3.50;;;;;;;20.83;53.31;99240.19;5073512;28;43080;-79
2022/07/24 04:41:32;;;;;;;4.40;4.00;;;;;;;20.86;52.79;99239.03;5091956;28;42415;-78
2022/07/24 04:43:59;;;;;;;3.60;3.30;;;;;;;20.88;52.88;99239.75;5090060;28;39885;-79
2022/07/24 04:46:28;;;;;;;3.57;3.27;;;;;;;20.94;52.66;99245.34;5090305;28;40416;-79
2022/07/24 04:48:57;;;;;;;3.63;3.33;;;;;;;21.01;52.53;99243.75;5073399;28;42765;-78
2022/07/24 04:51:24;;;;;;;4.03;3.60;;;;;;;21.07;52.50;99240.44;5125281;27;42814;-78
2022/07/24 04:53:53;;;;;;;3.70;3.40;;;;;;;21.10;52.21;99245.53;5094996;28;40707;-79
2022/07/24 04:56:22;;;;;;;3.13;2.83;;;;;;;21.12;52.29;99257.00;5111258;28;41654;-78
2022/07/24 04:58:49;;;;;;;3.60;3.30;;;;;;;21.14;52.19;99249.59;5076417;28;41558;-77
2022/07/24 05:01:17;;;;;;;3.80;3.37;;;;;;;21.09;52.24;99238.44;5095000;28;42048;-77
2022/07/24 05:03:45;;;;;;;3.90;3.60;;;;;;;21.19;52.16;99256.41;5076704;28;38876;-79
2022/07/24 05:06:15;;;;;;;3.43;3.20;;;;;;;21.26;52.01;99254.81;5093901;28;40801;-79
2022/07/24 05:08:42;;;;;;;3.17;2.87;;;;;;;21.36;51.67;99258.28;5076125;28;41649;-78
2022/07/24 05:11:10;;;;;;;3.80;3.40;;;;;;;21.33;51.71;99231.63;5095050;28;43123;-79
2022/07/24 05:13:38;;;;;;;3.50;3.20;;;;;;;21.54;51.31;99255.53;5093463;28;38690;-78
2022/07/24 05:16:06;;;;;;;3.13;2.80;;;;;;;21.63;51.22;99260.88;5076827;28;40634;-79
2022/07/24 05:18:34;;;;;;;3.13;2.93;;;;;;;21.72;51.03;99265.31;5093323;28;42780;-79
2022/07/24 05:21:02;;;;;;;3.63;3.33;;;;;;;21.80;50.80;99268.06;5110704;28;41105;-79
2022/07/24 05:23:31;;;;;;;4.40;3.30;;;;;;;21.88;50.80;99265.41;5127485;27;39764;-79
2022/07/24 05:25:59;;;;;;;3.73;3.43;;;;;;;21.96;50.73;99256.56;5089488;28;41715;-78
2022/07/24 05:28:27;;;;;;;3.40;3.10;;;;;;;22.06;50.35;99259.16;5093802;28;43619;-79
2022/07/24 05:30:55;;;;;;;3.80;3.50;;;;;;;22.11;50.29;99248.75;5091438;28;41152;-78
2022/07/24 05:33:22;;;;;;;3.20;3.00;;;;;;;22.25;49.90;99261.66;5074808;28;39903;-79
2022/07/24 05:35:50;;;;;;;3.67;3.30;;;;;;;22.30;49.78;99256.63;5091745;28;41965;-78
2022/07/24 05:38:18;;;;;;;3.93;3.63;;;;;;;22.40;49.76;99265.44;5092380;28;43590;-79
2022/07/24 05:40:48;;;;;;;3.70;3.40;;;;;;;22.48;49.67;99260.09;5090982;28;41846;-80
2022/07/24 05:43:16;;;;;;;3.37;3.17;;;;;;;22.48;49.58;99243.91;5092605;28;40791;-80
2022/07/24 05:45:44;;;;;;;4.27;3.87;;;;;;;22.65;49.62;99258.28;5091729;28;41638;-79
2022/07/24 05:48:13;;;;;;;3.50;3.20;;;;;;;22.48;49.12;99219.59;5074523;28;41647;-78
2022/07/24 05:50:40;;;;;;;3.93;3.30;;;;;;;22.87;48.78;99267.72;5074678;28;42515;-79
2022/07/24 05:53:08;;;;;;;3.50;3.20;;;;;;;22.96;48.84;99261.31;5089782;28;39999;-78
2022/07/24 05:55:36;;;;;;;3.30;3.00;;;;;;;22.92;48.63;99244.59;5091251;28;40977;-79
2022/07/24 05:58:06;;;;;;;3.27;2.97;;;;;;;23.15;48.57;99270.97;5074833;28;41902;-79
2022/07/24 06:00:33;;;;;;;3.90;3.50;;;;;;;23.24;48.16;99261.88;5091792;28;41033;-80
2022/07/24 06:03:01;;;;;;;3.20;2.90;;;;;;;23.33;47.87;99265.44;5073807;28;39231;-79
2022/07/24 06:05:29;;;;;;;3.60;3.30;;;;;;;23.48;48.23;99269.19;5091380;28;41693;-79
2022/07/24 06:07:57;;;;;;;3.57;3.27;;;;;;;23.49;47.51;99254.66;5091431;28;41680;-79
2022/07/24 06:10:24;;;;;;;4.77;3.40;;;;;;;23.78;46.82;99282.03;5091882;28;42198;-79
2022/07/24 06:12:52;;;;;;;3.77;3.43;;;;;;;23.91;47.07;99279.66;5093232;28;40824;-79
2022/07/24 06:15:22;;;;;;;3.67;3.37;;;;;;;24.04;47.23;99286.41;5092424;28;43069;-80
2022/07/24 06:17:49;;;;;;;5.70;3.23;;;;;;;24.15;46.90;99288.78;5092349;28;42725;-77
2022/07/24 06:20:17;;;;;;;3.53;3.27;;;;;;;24.26;46.87;99283.88;5073962;28;41167;-78
2022/07/24 06:22:45;;;;;;;3.20;2.97;;;;;;;24.37;46.61;99290.78;5093041;28;41132;-80
2022/07/24 06:25:14;;;;;;;3.30;3.07;;;;;;;24.39;46.17;99269.78;5073506;28;42187;-79
2022/07/24 06:27:42;;;;;;;3.00;2.80;;;;;;;24.77;45.72;99291.66;5091726;28;42895;-81
2022/07/24 06:30:14;;;;;;;3.37;3.07;;;;;;;24.87;45.15;99289.59;5074704;28;41849;-81
2022/07/24 06:32:43;;;;;;;3.30;3.00;;;;;;;25.05;45.00;99292.94;5084546;28;40116;-81
2022/07/24 06:35:11;;;;;;;3.47;3.23;;;;;;;25.20;44.36;99291.16;5088576;28;42700;-84
2022/07/24 06:37:39;;;;;;;3.70;3.20;;;;;;;25.36;44.06;99299.16;5091898;28;41612;-84
2022/07/24 06:40:08;;;;;;;3.33;3.13;;;;;;;25.46;43.98;99292.69;5090526;28;42402;-82
2022/07/24 06:42:36;;;;;;;3.60;3.30;;;;;;;25.63;43.98;99295.13;5091642;28;39918;-83
2022/07/24 06:45:05;;;;;;;5.70;3.60;;;;;;;25.73;43.50;99294.84;5091199;28;42008;-81
2022/07/24 06:47:33;;;;;;;3.03;2.80;;;;;;;25.87;43.18;99296.78;5090875;28;42593;-85
2022/07/24 06:50:03;;;;;;;3.00;2.80;;;;;;;25.98;43.04;99288.19;5091069;28;43237;-82
2022/07/24 06:52:32;;;;;;;3.87;3.53;;;;;;;26.21;42.69;99288.13;5074347;28;39421;-80
2022/07/24 06:55:00;;;;;;;3.40;3.10;;;;;;;26.37;42.85;99292.59;5073216;28;41717;-85
2022/07/24 06:57:29;;;;;;;4.07;3.53;;;;;;;26.50;41.63;99294.66;5074437;28;41896;-83
2022/07/24 06:59:57;;;;;;;4.43;3.20;;;;;;;26.82;41.60;99300.56;5072162;28;42416;-80
2022/07/24 07:02:25;;;;;;;3.67;3.37;;;;;;;27.11;41.13;99304.28;5090934;28;40154;-82
2022/07/24 07:04:52;;;;;;;3.57;3.27;;;;;;;27.23;41.15;99302.75;5091501;28;41942;-90
2022/07/24 07:07:24;;;;;;;3.97;3.57;;;;;;;27.40;40.92;99304.22;5092074;28;42754;-82
2022/07/24 07:09:52;;;;;;;3.53;3.23;;;;;;;27.53;39.78;99307.09;5092541;28;43249;-83
2022/07/24 07:12:19;;;;;;;3.90;3.60;;;;;;;27.90;39.74;99302.44;5092133;28;40499;-86
2022/07/24 07:14:47;;;;;;;3.40;3.20;;;;;;;28.16;39.41;99307.25;5090823;28;43128;-80
2022/07/24 07:17:17;;;;;;;4.37;3.97;;;;;;;28.01;39.18;99261.06;5093235;28;42793;-86
2022/07/24 07:19:45;;;;;;;4.43;4.03;;;;;;;28.41;39.14;99304.97;5092486;28;43253;-80
2022/07/24 07:22:12;;;;;;;4.50;4.10;;;;;;;28.64;38.99;99310.97;5075049;28;40356;-85
2022/07/24 07:24:42;;;;;;;4.80;4.40;;;;;;;29.02;38.13;99316.03;5091589;28;41979;-83
2022/07/24 07:27:09;;;;;;;4.90;4.50;;;;;;;29.49;37.45;99316.00;5091717;28;44819;-80
2022/07/24 07:29:37;;;;;;;5.03;4.60;;;;;;;29.90;36.90;99306.84;5091579;28;41935;-79
2022/07/24 07:32:05;;;;;;;4.80;4.37;;;;;;;30.19;36.50;99317.38;5092057;28;40184;-80
2022/07/24 07:34:33;;;;;;;4.80;4.40;;;;;;;30.59;35.78;99328.28;5091368;28;40712;-82
2022/07/24 07:37:01;;;;;;;5.30;4.80;;;;;;;31.31;34.64;99332.72;5091487;28;42094;-81
2022/07/24 07:39:28;;;;;;;4.87;4.47;;;;;;;32.11;33.79;99328.44;5091411;28;42449;-82
2022/07/24 07:41:58;;;;;;;4.70;4.30;;;;;;;32.82;32.84;99337.09;5075124;28;39778;-80
2022/07/24 07:44:26;;;;;;;4.73;4.33;;;;;;;33.07;32.53;99337.03;5091309;28;40684;-78
2022/07/24 07:46:54;;;;;;;5.83;5.33;;;;;;;33.17;32.34;99340.06;5074625;28;42855;-81
2022/07/24 07:49:22;;;;;;;5.20;4.80;;;;;;;33.36;31.19;99351.06;5092313;28;42285;-79
2022/07/24 07:51:51;;;;;;;4.97;4.57;;;;;;;33.92;30.92;99347.94;5092509;28;40910;-84
2022/07/24 07:54:19;;;;;;;5.30;4.73;;;;;;;34.57;29.82;99340.53;5074209;28;43064;-82
2022/07/24 07:56:48;;;;;;;5.03;4.63;;;;;;;34.82;29.38;99353.25;5091355;28;42866;-83
2022/07/24 07:59:17;;;;;;;5.03;4.53;;;;;;;34.67;29.70;99344.59;5073772;28;41143;-82
2022/07/24 08:01:45;;;;;;;5.87;5.30;;;;;;;34.48;30.05;99341.97;5073944;28;39073;-82
2022/07/24 08:04:13;;;;;;;5.50;5.03;;;;;;;34.31;30.18;99340.16;5092261;28;41665;-84
2022/07/24 08:06:41;;;;;;;6.10;5.57;;;;;;;34.20;30.94;99331.66;5073872;28;41935;-81
2022/07/24 08:09:09;;;;;;;5.17;4.67;;;;;;;34.36;30.26;99338.41;5090606;28;42275;-84
2022/07/24 08:11:37;;;;;;;5.13;4.73;;;;;;;34.74;29.82;99334.31;5091427;28;38960;-82
2022/07/24 08:14:05;;;;;;;5.47;5.00;;;;;;;35.28;29.09;99341.31;5092141;28;41842;-79
2022/07/24 08:16:34;;;;;;;5.30;4.80;;;;;;;35.67;28.57;99339.63;5074113;28;42949;-81
2022/07/24 08:19:03;;;;;;;5.50;5.00;;;;;;;35.81;28.35;99335.50;5092009;28;42286;-81
2022/07/24 08:21:31;;;;;;;5.13;4.73;;;;;;;35.83;28.79;99335.25;5092093;28;39880;-80
2022/07/24 08:23:59;;;;;;;5.20;4.80;;;;;;;36.25;27.77;99346.75;5090706;28;41740;-82
2022/07/24 08:26:30;;;;;;;5.77;5.37;;;;;;;36.85;27.17;99346.03;5093534;28;43303;-87
2022/07/24 08:28:58;;;;;;;5.37;4.93;;;;;;;37.60;26.57;99337.06;5094466;28;41883;-87
2022/07/24 08:31:27;;;;;;;5.40;5.00;;;;;;;38.15;25.48;99355.38;5094682;28;39913;-84
2022/07/24 08:33:56;;;;;;;5.77;4.50;;;;;;;38.60;25.14;99364.06;5094271;28;41777;-84
2022/07/24 08:36:24;;;;;;;4.33;4.03;;;;;;;38.94;25.08;99353.50;5094674;28;41950;-85
2022/07/24 08:38:52;;;;;;;4.57;4.20;;;;;;;39.34;24.50;99354.78;5095170;28;43049;-82
2022/07/24 08:41:20;;;;;;;5.60;5.10;;;;;;;39.72;24.06;99348.84;5094675;28;38662;-83
2022/07/24 08:43:48;;;;;;;4.55;4.15;;;;;;;40.41;23.76;99347.56;5094365;28;41018;-80
2022/07/24 08:46:16;;;;;;;5.35;4.95;;;;;;;40.94;22.43;99360.00;5077167;28;43071;-83
2022/07/24 08:48:45;;;;;;;4.78;4.38;;;;;;;41.74;21.48;99352.47;5095205;28;42035;-81
2022/07/24 08:51:15;;;;;;;5.18;4.82;;;;;;;42.64;19.90;99343.72;5095478;28;40091;-81
2022/07/24 08:53:44;;;;;;;4.80;4.50;;;;;;;43.67;19.41;99365.38;5094275;28;43962;-81
2022/07/24 08:56:12;;;;;;;4.72;4.32;;;;;;;44.40;19.38;99359.25;5095680;28;42819;-83
2022/07/24 08:58:41;;;;;;;5.25;4.53;;;;;;;44.70;19.15;99368.22;5077094;28;43279;-81
2022/07/24 09:01:09;;;;;;;5.00;4.60;;;;;;;44.06;19.29;99364.25;5077442;28;39979;-85
2022/07/24 09:03:41;;;;;;;4.18;3.88;;;;;;;42.92;20.16;99361.53;5076934;28;41956;-81
2022/07/24 09:06:10;;;;;;;4.40;4.10;;;;;;;41.99;20.27;99365.41;5077090;28;42902;-80
2022/07/24 09:08:41;;;;;;;5.22;4.85;;;;;;;41.08;21.54;99349.09;5094694;28;43007;-79
2022/07/24 09:11:09;;;;;;;4.40;4.10;;;;;;;40.57;21.98;99338.09;5094262;28;38869;-83
2022/07/24 09:16:25;;;;;;;4.35;4.05;;;;;;;39.94;22.18;99334.75;5094042;28;41976;-79
2022/07/24 09:19:05;;;;;;;4.60;4.30;;;;;;;39.70;22.42;99328.88;5093905;28;41020;-82
2022/07/24 09:21:34;;;;;;;4.50;4.20;;;;;;;39.74;22.40;99334.72;5076808;28;38903;-82
2022/07/24 09:24:13;;;;;;;4.38;4.10;;;;;;;39.58;22.86;99338.53;5076633;28;42039;-82
2022/07/24 09:26:45;;;;;;;5.13;4.65;;;;;;;39.42;22.02;99341.28;5090632;28;43266;-83
2022/07/24 09:29:14;;;;;;;4.63;4.32;;;;;;;39.26;22.93;99322.91;5093420;28;41163;-81
2022/07/24 09:31:56;;;;;;;4.50;4.20;;;;;;;39.52;22.26;99343.25;5093795;28;40371;-81
2022/07/24 09:34:25;;;;;;;4.75;4.35;;;;;;;39.37;22.53;99337.63;5093378;28;40705;-79
2022/07/24 09:37:01;;;;;;;4.75;4.35;;;;;;;38.84;22.57;99319.34;5092633;28;43386;-86
2022/07/24 09:39:32;;;;;;;4.28;3.97;;;;;;;38.54;23.25;99284.84;5076994;28;41023;-79
2022/07/24 09:42:02;;;;;;;4.50;4.20;;;;;;;39.24;22.87;99324.28;5090356;28;40166;-76
2022/07/24 09:44:31;;;;;;;5.15;4.75;;;;;;;39.65;22.31;99330.81;5076211;28;41388;-79
2022/07/24 09:47:02;;;;;;;4.57;4.28;;;;;;;39.61;22.53;99326.91;5092970;28;41399;-79
2022/07/24 09:49:31;;;;;;;4.55;4.25;;;;;;;39.67;22.23;99334.16;5076045;28;41280;-77
2022/07/24 09:52:11;;;;;;;5.10;4.70;;;;;;;39.57;21.97;99328.56;5076056;28;38761;-77
2022/07/24 09:54:42;;;;;;;4.70;4.40;;;;;;;40.51;21.44;99333.69;5075799;28;41287;-78
2022/07/24 09:57:19;;;;;;;4.28;3.97;;;;;;;41.08;21.12;99321.31;5089961;28;43517;-79
2022/07/24 09:59:49;;;;;;;5.85;5.45;;;;;;;41.24;20.39;99334.06;5075837;28;42645;-79
2022/07/24 10:02:18;;;;;;;4.68;4.32;;;;;;;41.01;21.14;99326.34;5076359;28;41456;-79
2022/07/24 10:04:48;;;;;;;5.65;5.25;;;;;;;41.17;21.12;99319.66;5093789;28;41683;-77
2022/07/24 10:07:19;;;;;;;5.05;4.65;;;;;;;41.25;20.86;99311.56;5092658;28;43923;-76
2022/07/24 10:09:51;;;;;;;4.85;4.55;;;;;;;40.98;21.09;99311.06;5075557;28;41310;-77
2022/07/24 10:12:21;;;;;;;4.82;4.53;;;;;;;40.53;21.47;99314.78;5075790;28;40757;-78
2022/07/24 10:14:52;;;;;;;5.53;5.07;;;;;;;40.32;21.20;99315.91;5092320;28;41730;-79
2022/07/24 10:17:22;;;;;;;5.30;4.82;;;;;;;40.24;21.17;99300.63;5091072;28;43656;-78
2022/07/24 10:19:52;;;;;;;5.35;4.95;;;;;;;40.64;21.49;99305.31;5075434;28;40853;-76
2022/07/24 10:22:22;;;;;;;6.15;5.65;;;;;;;41.35;20.62;99309.81;5075570;28;39112;-78
2022/07/24 10:25:01;;;;;;;5.35;4.95;;;;;;;42.31;20.14;99303.59;5098002;28;41943;-78
2022/07/24 10:27:31;;;;;;;6.13;5.63;;;;;;;43.07;19.42;99307.56;5096586;28;42963;-78
2022/07/24 10:30:01;;;;;;;5.65;5.25;;;;;;;43.83;18.60;99314.91;5079686;28;42836;-77
2022/07/24 10:32:32;;;;;;;5.78;5.20;;;;;;;43.46;18.78;99310.97;5097961;28;41290;-76
2022/07/24 10:35:13;;;;;;;5.72;5.28;;;;;;;42.25;19.58;99311.19;5097789;28;41825;-77
2022/07/24 10:37:49;;;;;;;5.43;5.03;;;;;;;41.12;20.54;99297.41;5096877;28;43181;-81
2022/07/24 10:40:37;;;;;;;5.25;4.85;;;;;;;40.29;21.71;99281.25;5079859;28;42419;-78
2022/07/24 10:43:11;;;;;;;5.55;5.15;;;;;;;41.27;20.85;99283.47;5081219;28;39093;-77
2022/07/24 10:45:39;;;;;;;5.82;5.32;;;;;;;42.35;19.88;99287.16;5079981;28;41616;-76
2022/07/24 10:48:32;;;;;;;5.70;5.30;;;;;;;42.43;20.04;99275.38;5097859;28;42609;-76
2022/07/24 10:51:11;;;;;;;5.65;5.15;;;;;;;42.46;20.04;99275.63;5092930;28;42813;-81
2022/07/24 10:53:51;;;;;;;5.57;5.18;;;;;;;42.40;19.66;99273.22;5092100;28;39487;-77
2022/07/24 10:56:26;;;;;;;5.45;5.05;;;;;;;42.53;19.57;99280.88;5092484;28;40769;-79
2022/07/24 10:59:02;;;;;;;5.43;5.03;;;;;;;42.63;19.35;99280.75;5075087;28;44241;-77
2022/07/24 11:01:31;;;;;;;5.07;4.68;;;;;;;42.73;19.24;99272.28;5090164;28;43151;-79
2022/07/24 11:04:00;;;;;;;5.45;5.05;;;;;;;42.40;19.35;99278.78;5091600;28;39650;-80
2022/07/24 11:06:44;;;;;;;5.38;4.97;;;;;;;41.75;19.61;99267.88;5074934;28;40833;-79
2022/07/24 11:09:12;;;;;;;5.57;5.07;;;;;;;42.30;19.69;99276.88;5091645;28;42853;-78
2022/07/24 11:12:06;;;;;;;5.43;4.93;;;;;;;42.93;19.24;99269.25;5091705;28;42001;-79
2022/07/24 11:14:51;;;;;;;5.43;4.93;;;;;;;43.25;17.96;99264.97;5091008;28;40072;-77
2022/07/24 11:17:40;;;;;;;5.53;5.10;;;;;;;43.07;18.78;99272.16;5092159;28;41253;-79
2022/07/24 11:20:10;;;;;;;5.47;5.00;;;;;;;42.24;18.66;99272.50;5091626;28;42967;-82
2022/07/24 11:22:44;;;;;;;4.75;4.45;;;;;;;42.04;19.27;99259.59;5092219;28;41764;-79
2022/07/24 11:25:15;;;;;;;4.90;4.57;;;;;;;42.25;19.37;99255.50;5074504;28;40342;-81
2022/07/24 11:27:56;;;;;;;4.80;4.40;;;;;;;42.26;19.32;99247.97;5092029;28;42280;-79
2022/07/24 11:30:25;;;;;;;4.90;4.50;;;;;;;42.25;19.96;99241.59;5088631;28;42974;-78
2022/07/24 11:32:53;;;;;;;5.28;4.88;;;;;;;42.35;19.43;99245.38;5074290;28;41513;-79
2022/07/24 11:35:28;;;;;;;4.88;4.50;;;;;;;42.44;18.55;99240.84;5074783;28;38928;-79
2022/07/24 11:37:56;;;;;;;4.95;4.55;;;;;;;41.81;19.43;99244.44;5088281;28;42106;-81
2022/07/24 11:40:24;;;;;;;5.05;4.75;;;;;;;41.25;19.87;99235.66;5074689;28;43957;-81
2022/07/24 11:42:58;;;;;;;5.60;5.20;;;;;;;40.58;19.89;99231.44;5092556;28;42189;-79
2022/07/24 11:45:26;;;;;;;5.03;4.63;;;;;;;40.78;20.91;99217.53;5091547;28;39021;-79
2022/07/24 11:47:55;;;;;;;5.45;5.05;;;;;;;41.39;20.50;99222.78;5091248;28;42081;-78